sensor_id;sensor_type;location;lat;lon;timestamp;temperature;humidity
43647;DHT22;56152;49.996;18.980;2023-07-29T00:01:04;16.10;96.30
43647;DHT22;56152;49.996;18.980;2023-07-29T00:06:09;16.20;96.40
43647;DHT22;56152;49.996;18.980;2023-07-29T00:11:13;16.10;96.40
43647;DHT22;56152;49.996;18.980;2023-07-29T00:16:17;16.00;96.40
43647;DHT22;56152;49.996;18.980;2023-07-29T00:21:21;15.90;96.60
43647;DHT22;56152;49.996;18.980;2023-07-29T00:26:23;15.90;96.60
43647;DHT22;56152;49.996;18.980;2023-07-29T00:31:28;15.90;96.60
43647;DHT22;56152;49.996;18.980;2023-07-29T00:36:29;15.80;96.60
43647;DHT22;56152;49.996;18.980;2023-07-29T00:41:34;15.90;96.60
43647;DHT22;56152;49.996;18.980;2023-07-29T00:46:38;15.80;96.60
43647;DHT22;56152;49.996;18.980;2023-07-29T00:51:42;15.80;96.70
43647;DHT22;56152;49.996;18.980;2023-07-29T00:56:44;15.90;96.80
43647;DHT22;56152;49.996;18.980;2023-07-29T01:01:48;16.10;96.80
43647;DHT22;56152;49.996;18.980;2023-07-29T01:06:53;16.40;96.60
43647;DHT22;56152;49.996;18.980;2023-07-29T01:12:11;16.60;96.50
43647;DHT22;56152;49.996;18.980;2023-07-29T01:17:20;16.80;96.70
43647;DHT22;56152;49.996;18.980;2023-07-29T01:22:24;17.00;96.30
43647;DHT22;56152;49.996;18.980;2023-07-29T01:27:27;17.10;96.30
43647;DHT22;56152;49.996;18.980;2023-07-29T01:32:35;17.00;96.30
43647;DHT22;56152;49.996;18.980;2023-07-29T01:37:38;17.10;96.30
43647;DHT22;56152;49.996;18.980;2023-07-29T01:42:44;17.00;96.40
43647;DHT22;56152;49.996;18.980;2023-07-29T01:47:47;17.10;96.50
43647;DHT22;56152;49.996;18.980;2023-07-29T01:52:49;17.10;96.60
43647;DHT22;56152;49.996;18.980;2023-07-29T01:57:53;17.00;96.50
43647;DHT22;56152;49.996;18.980;2023-07-29T02:02:55;17.00;96.60
43647;DHT22;56152;49.996;18.980;2023-07-29T02:07:57;17.00;96.60
43647;DHT22;56152;49.996;18.980;2023-07-29T02:13:00;17.00;96.70
43647;DHT22;56152;49.996;18.980;2023-07-29T02:18:02;17.00;96.70
43647;DHT22;56152;49.996;18.980;2023-07-29T02:23:04;16.90;96.70
43647;DHT22;56152;49.996;18.980;2023-07-29T02:28:10;16.90;96.70
43647;DHT22;56152;49.996;18.980;2023-07-29T02:33:14;16.80;96.80
43647;DHT22;56152;49.996;18.980;2023-07-29T02:38:16;16.70;96.90
43647;DHT22;56152;49.996;18.980;2023-07-29T02:43:19;16.70;96.90
43647;DHT22;56152;49.996;18.980;2023-07-29T02:48:21;16.60;97.00
43647;DHT22;56152;49.996;18.980;2023-07-29T02:53:23;16.60;97.00
43647;DHT22;56152;49.996;18.980;2023-07-29T02:58:26;16.50;97.00
43647;DHT22;56152;49.996;18.980;2023-07-29T03:03:28;16.50;97.00
43647;DHT22;56152;49.996;18.980;2023-07-29T03:08:30;16.40;97.00
43647;DHT22;56152;49.996;18.980;2023-07-29T03:13:34;16.40;97.10
43647;DHT22;56152;49.996;18.980;2023-07-29T03:18:36;16.40;97.00
43647;DHT22;56152;49.996;18.980;2023-07-29T03:23:38;16.40;97.10
43647;DHT22;56152;49.996;18.980;2023-07-29T03:28:42;16.30;97.10
43647;DHT22;56152;49.996;18.980;2023-07-29T03:33:44;16.30;97.10
43647;DHT22;56152;49.996;18.980;2023-07-29T03:38:46;16.30;97.10
43647;DHT22;56152;49.996;18.980;2023-07-29T03:43:50;16.30;97.10
43647;DHT22;56152;49.996;18.980;2023-07-29T03:48:52;16.30;97.10
43647;DHT22;56152;49.996;18.980;2023-07-29T03:53:54;16.20;97.10
43647;DHT22;56152;49.996;18.980;2023-07-29T03:59:04;16.30;97.40
43647;DHT22;56152;49.996;18.980;2023-07-29T04:04:06;16.30;97.20
43647;DHT22;56152;49.996;18.980;2023-07-29T04:09:08;16.40;97.20
43647;DHT22;56152;49.996;18.980;2023-07-29T04:14:14;16.50;97.10
43647;DHT22;56152;49.996;18.980;2023-07-29T04:19:16;16.60;97.10
43647;DHT22;56152;49.996;18.980;2023-07-29T04:24:18;16.80;97.10
43647;DHT22;56152;49.996;18.980;2023-07-29T04:29:22;17.10;97.00
43647;DHT22;56152;49.996;18.980;2023-07-29T04:34:24;17.40;96.90
43647;DHT22;56152;49.996;18.980;2023-07-29T04:39:26;17.50;96.80
43647;DHT22;56152;49.996;18.980;2023-07-29T04:44:32;17.70;96.90
43647;DHT22;56152;49.996;18.980;2023-07-29T04:49:34;17.90;96.80
43647;DHT22;56152;49.996;18.980;2023-07-29T04:54:38;18.20;96.60
43647;DHT22;56152;49.996;18.980;2023-07-29T04:59:45;18.40;96.50
43647;DHT22;56152;49.996;18.980;2023-07-29T05:04:48;18.50;96.40
43647;DHT22;56152;49.996;18.980;2023-07-29T05:09:50;18.70;96.40
43647;DHT22;56152;49.996;18.980;2023-07-29T05:14:54;19.10;96.20
43647;DHT22;56152;49.996;18.980;2023-07-29T05:19:59;19.40;95.90
43647;DHT22;56152;49.996;18.980;2023-07-29T05:25:01;19.70;95.70
43647;DHT22;56152;49.996;18.980;2023-07-29T05:30:06;20.00;95.40
43647;DHT22;56152;49.996;18.980;2023-07-29T05:35:09;20.30;95.30
43647;DHT22;56152;49.996;18.980;2023-07-29T05:40:11;20.60;94.80
43647;DHT22;56152;49.996;18.980;2023-07-29T05:45:19;20.60;94.50
43647;DHT22;56152;49.996;18.980;2023-07-29T05:50:20;20.70;94.40
43647;DHT22;56152;49.996;18.980;2023-07-29T05:55:22;21.00;94.40
43647;DHT22;56152;49.996;18.980;2023-07-29T06:00:28;21.30;94.00
43647;DHT22;56152;49.996;18.980;2023-07-29T06:05:30;21.60;93.40
43647;DHT22;56152;49.996;18.980;2023-07-29T06:10:32;21.70;92.80
43647;DHT22;56152;49.996;18.980;2023-07-29T06:15:36;21.80;92.50
43647;DHT22;56152;49.996;18.980;2023-07-29T06:20:38;21.90;92.30
43647;DHT22;56152;49.996;18.980;2023-07-29T06:25:39;22.10;91.80
43647;DHT22;56152;49.996;18.980;2023-07-29T06:30:43;22.40;91.60
43647;DHT22;56152;49.996;18.980;2023-07-29T06:35:45;22.70;91.10
43647;DHT22;56152;49.996;18.980;2023-07-29T06:40:47;23.00;90.70
43647;DHT22;56152;49.996;18.980;2023-07-29T06:45:50;23.10;90.30
43647;DHT22;56152;49.996;18.980;2023-07-29T06:50:52;23.10;90.10
43647;DHT22;56152;49.996;18.980;2023-07-29T06:55:55;22.80;90.50
43647;DHT22;56152;49.996;18.980;2023-07-29T07:01:01;22.80;90.80
43647;DHT22;56152;49.996;18.980;2023-07-29T07:06:08;23.10;90.70
43647;DHT22;56152;49.996;18.980;2023-07-29T07:11:12;23.50;90.20
43647;DHT22;56152;49.996;18.980;2023-07-29T07:16:16;23.70;89.20
43647;DHT22;56152;49.996;18.980;2023-07-29T07:21:17;23.70;88.90
43647;DHT22;56152;49.996;18.980;2023-07-29T07:26:19;23.90;88.50
43647;DHT22;56152;49.996;18.980;2023-07-29T07:31:23;24.30;87.60
43647;DHT22;56152;49.996;18.980;2023-07-29T07:36:25;24.80;86.40
43647;DHT22;56152;49.996;18.980;2023-07-29T07:41:27;25.10;85.40
43647;DHT22;56152;49.996;18.980;2023-07-29T07:46:30;25.30;83.70
43647;DHT22;56152;49.996;18.980;2023-07-29T07:51:32;25.10;82.90
43647;DHT22;56152;49.996;18.980;2023-07-29T07:56:36;24.90;82.80
43647;DHT22;56152;49.996;18.980;2023-07-29T08:01:43;24.90;82.50
43647;DHT22;56152;49.996;18.980;2023-07-29T08:06:44;25.20;82.10
43647;DHT22;56152;49.996;18.980;2023-07-29T08:11:47;25.50;81.70
43647;DHT22;56152;49.996;18.980;2023-07-29T08:16:50;26.00;80.80
43647;DHT22;56152;49.996;18.980;2023-07-29T08:21:52;26.20;79.40
43647;DHT22;56152;49.996;18.980;2023-07-29T08:26:54;26.10;79.10
43647;DHT22;56152;49.996;18.980;2023-07-29T08:31:57;26.00;78.90
43647;DHT22;56152;49.996;18.980;2023-07-29T08:36:59;26.20;79.00
43647;DHT22;56152;49.996;18.980;2023-07-29T08:42:03;26.80;76.70
43647;DHT22;56152;49.996;18.980;2023-07-29T08:47:11;26.90;75.10
43647;DHT22;56152;49.996;18.980;2023-07-29T08:52:14;26.80;75.40
43647;DHT22;56152;49.996;18.980;2023-07-29T08:57:17;26.60;75.20
43647;DHT22;56152;49.996;18.980;2023-07-29T09:02:26;26.30;74.90
43647;DHT22;56152;49.996;18.980;2023-07-29T09:07:29;26.30;75.00
43647;DHT22;56152;49.996;18.980;2023-07-29T09:12:33;26.20;75.30
43647;DHT22;56152;49.996;18.980;2023-07-29T09:17:37;26.10;75.70
43647;DHT22;56152;49.996;18.980;2023-07-29T09:22:43;26.50;75.10
43647;DHT22;56152;49.996;18.980;2023-07-29T09:27:46;26.80;74.10
43647;DHT22;56152;49.996;18.980;2023-07-29T09:32:55;27.10;73.40
43647;DHT22;56152;49.996;18.980;2023-07-29T09:37:58;27.10;73.50
43647;DHT22;56152;49.996;18.980;2023-07-29T09:43:00;27.40;73.50
43647;DHT22;56152;49.996;18.980;2023-07-29T09:48:04;27.80;72.70
43647;DHT22;56152;49.996;18.980;2023-07-29T09:53:10;28.20;71.60
43647;DHT22;56152;49.996;18.980;2023-07-29T09:58:12;28.10;70.80
43647;DHT22;56152;49.996;18.980;2023-07-29T10:03:22;27.60;70.90
43647;DHT22;56152;49.996;18.980;2023-07-29T10:08:25;26.90;72.00
43647;DHT22;56152;49.996;18.980;2023-07-29T10:13:42;26.60;74.20
43647;DHT22;56152;49.996;18.980;2023-07-29T10:18:46;26.70;73.70
43647;DHT22;56152;49.996;18.980;2023-07-29T10:24:25;26.70;73.10
43647;DHT22;56152;49.996;18.980;2023-07-29T10:29:44;26.80;73.40
43647;DHT22;56152;49.996;18.980;2023-07-29T10:35:09;26.70;71.90
43647;DHT22;56152;49.996;18.980;2023-07-29T10:40:12;26.40;72.20
43647;DHT22;56152;49.996;18.980;2023-07-29T10:45:18;26.10;72.10
43647;DHT22;56152;49.996;18.980;2023-07-29T10:50:23;25.90;72.40
43647;DHT22;56152;49.996;18.980;2023-07-29T10:55:33;25.90;72.70
43647;DHT22;56152;49.996;18.980;2023-07-29T11:00:38;26.40;72.60
43647;DHT22;56152;49.996;18.980;2023-07-29T11:05:50;26.50;71.90
43647;DHT22;56152;49.996;18.980;2023-07-29T11:11:08;26.90;71.50
43647;DHT22;56152;49.996;18.980;2023-07-29T11:16:16;27.10;71.50
43647;DHT22;56152;49.996;18.980;2023-07-29T11:21:43;27.30;70.00
43647;DHT22;56152;49.996;18.980;2023-07-29T11:26:47;27.40;70.40
43647;DHT22;56152;49.996;18.980;2023-07-29T11:31:59;27.30;69.30
43647;DHT22;56152;49.996;18.980;2023-07-29T11:42:31;27.30;68.70
43647;DHT22;56152;49.996;18.980;2023-07-29T11:47:37;27.10;68.80
43647;DHT22;56152;49.996;18.980;2023-07-29T11:52:42;27.00;68.70
43647;DHT22;56152;49.996;18.980;2023-07-29T12:03:37;26.80;69.80
43647;DHT22;56152;49.996;18.980;2023-07-29T12:08:45;26.90;69.90
43647;DHT22;56152;49.996;18.980;2023-07-29T12:14:03;27.00;69.70
43647;DHT22;56152;49.996;18.980;2023-07-29T12:19:15;27.00;69.30
43647;DHT22;56152;49.996;18.980;2023-07-29T12:24:22;27.00;69.60
43647;DHT22;56152;49.996;18.980;2023-07-29T12:29:25;27.10;68.90
43647;DHT22;56152;49.996;18.980;2023-07-29T12:34:28;27.50;68.90
43647;DHT22;56152;49.996;18.980;2023-07-29T12:39:34;27.70;68.00
43647;DHT22;56152;49.996;18.980;2023-07-29T12:44:37;27.60;67.60
43647;DHT22;56152;49.996;18.980;2023-07-29T12:49:43;27.60;67.50
43647;DHT22;56152;49.996;18.980;2023-07-29T12:54:47;27.60;66.90
43647;DHT22;56152;49.996;18.980;2023-07-29T12:59:49;27.60;67.00
43647;DHT22;56152;49.996;18.980;2023-07-29T13:04:51;27.50;66.90
43647;DHT22;56152;49.996;18.980;2023-07-29T13:09:55;27.50;67.30
43647;DHT22;56152;49.996;18.980;2023-07-29T13:14:58;27.40;67.50
43647;DHT22;56152;49.996;18.980;2023-07-29T13:20:00;27.30;67.40
43647;DHT22;56152;49.996;18.980;2023-07-29T13:25:04;27.00;68.30
43647;DHT22;56152;49.996;18.980;2023-07-29T13:30:13;26.80;68.90
43647;DHT22;56152;49.996;18.980;2023-07-29T13:35:19;26.50;69.50
43647;DHT22;56152;49.996;18.980;2023-07-29T13:40:35;26.40;70.60
43647;DHT22;56152;49.996;18.980;2023-07-29T13:45:37;26.40;69.80
43647;DHT22;56152;49.996;18.980;2023-07-29T13:50:39;26.20;70.20
43647;DHT22;56152;49.996;18.980;2023-07-29T13:55:43;26.30;70.80
43647;DHT22;56152;49.996;18.980;2023-07-29T14:00:48;26.40;70.60
43647;DHT22;56152;49.996;18.980;2023-07-29T14:05:53;26.40;70.80
43647;DHT22;56152;49.996;18.980;2023-07-29T14:11:00;26.30;71.20
43647;DHT22;56152;49.996;18.980;2023-07-29T14:16:06;26.40;70.40
43647;DHT22;56152;49.996;18.980;2023-07-29T14:21:09;26.30;69.50
43647;DHT22;56152;49.996;18.980;2023-07-29T14:26:12;26.20;69.80
43647;DHT22;56152;49.996;18.980;2023-07-29T14:31:14;25.80;70.10
43647;DHT22;56152;49.996;18.980;2023-07-29T14:36:17;25.50;71.00
43647;DHT22;56152;49.996;18.980;2023-07-29T14:41:22;25.40;70.80
43647;DHT22;56152;49.996;18.980;2023-07-29T14:46:30;25.50;71.10
43647;DHT22;56152;49.996;18.980;2023-07-29T14:51:32;25.60;70.60
43647;DHT22;56152;49.996;18.980;2023-07-29T14:56:37;25.60;70.90
43647;DHT22;56152;49.996;18.980;2023-07-29T15:01:39;25.50;71.20
43647;DHT22;56152;49.996;18.980;2023-07-29T15:07:02;25.40;71.30
43647;DHT22;56152;49.996;18.980;2023-07-29T15:12:09;25.30;72.10
43647;DHT22;56152;49.996;18.980;2023-07-29T15:17:11;25.40;72.20
43647;DHT22;56152;49.996;18.980;2023-07-29T15:22:15;25.70;71.70
43647;DHT22;56152;49.996;18.980;2023-07-29T15:27:20;25.80;71.60
43647;DHT22;56152;49.996;18.980;2023-07-29T15:32:23;25.80;71.70
43647;DHT22;56152;49.996;18.980;2023-07-29T15:37:25;25.70;71.80
43647;DHT22;56152;49.996;18.980;2023-07-29T15:42:30;25.50;72.10
43647;DHT22;56152;49.996;18.980;2023-07-29T15:47:32;25.30;72.70
43647;DHT22;56152;49.996;18.980;2023-07-29T15:52:34;25.00;73.30
43647;DHT22;56152;49.996;18.980;2023-07-29T15:57:38;24.70;74.10
43647;DHT22;56152;49.996;18.980;2023-07-29T16:02:40;24.50;74.90
43647;DHT22;56152;49.996;18.980;2023-07-29T16:07:41;24.40;75.50
43647;DHT22;56152;49.996;18.980;2023-07-29T16:12:45;24.30;76.00
43647;DHT22;56152;49.996;18.980;2023-07-29T16:17:49;24.30;77.40
43647;DHT22;56152;49.996;18.980;2023-07-29T16:22:54;24.10;77.20
43647;DHT22;56152;49.996;18.980;2023-07-29T16:27:58;24.00;77.80
43647;DHT22;56152;49.996;18.980;2023-07-29T16:33:00;23.90;78.50
43647;DHT22;56152;49.996;18.980;2023-07-29T16:38:05;23.80;78.90
43647;DHT22;56152;49.996;18.980;2023-07-29T16:43:10;23.70;79.10
43647;DHT22;56152;49.996;18.980;2023-07-29T16:48:15;23.60;79.10
43647;DHT22;56152;49.996;18.980;2023-07-29T16:53:18;23.50;79.30
43647;DHT22;56152;49.996;18.980;2023-07-29T16:58:21;23.40;78.90
43647;DHT22;56152;49.996;18.980;2023-07-29T17:03:26;23.30;77.80
43647;DHT22;56152;49.996;18.980;2023-07-29T17:08:29;23.10;76.70
43647;DHT22;56152;49.996;18.980;2023-07-29T17:13:35;22.90;76.30
43647;DHT22;56152;49.996;18.980;2023-07-29T17:18:38;22.90;76.10
43647;DHT22;56152;49.996;18.980;2023-07-29T17:23:40;22.90;76.20
43647;DHT22;56152;49.996;18.980;2023-07-29T17:28:45;22.90;75.30
43647;DHT22;56152;49.996;18.980;2023-07-29T17:33:47;22.70;75.30
43647;DHT22;56152;49.996;18.980;2023-07-29T17:38:53;22.50;75.80
43647;DHT22;56152;49.996;18.980;2023-07-29T17:43:56;22.30;76.20
43647;DHT22;56152;49.996;18.980;2023-07-29T17:49:03;22.10;76.60
43647;DHT22;56152;49.996;18.980;2023-07-29T17:54:06;22.00;77.30
43647;DHT22;56152;49.996;18.980;2023-07-29T17:59:14;21.90;77.60
43647;DHT22;56152;49.996;18.980;2023-07-29T18:04:16;21.90;77.70
43647;DHT22;56152;49.996;18.980;2023-07-29T18:09:21;21.90;77.90
43647;DHT22;56152;49.996;18.980;2023-07-29T18:14:25;21.80;78.00
43647;DHT22;56152;49.996;18.980;2023-07-29T18:19:30;21.80;78.30
43647;DHT22;56152;49.996;18.980;2023-07-29T18:24:33;21.60;78.50
43647;DHT22;56152;49.996;18.980;2023-07-29T18:29:37;21.60;78.80
43647;DHT22;56152;49.996;18.980;2023-07-29T18:34:40;21.40;78.90
43647;DHT22;56152;49.996;18.980;2023-07-29T18:39:46;21.40;79.30
43647;DHT22;56152;49.996;18.980;2023-07-29T18:44:52;21.20;79.60
43647;DHT22;56152;49.996;18.980;2023-07-29T18:49:55;21.10;80.00
43647;DHT22;56152;49.996;18.980;2023-07-29T18:54:59;20.90;80.60
43647;DHT22;56152;49.996;18.980;2023-07-29T19:00:05;20.80;81.20
43647;DHT22;56152;49.996;18.980;2023-07-29T19:05:07;20.60;81.80
43647;DHT22;56152;49.996;18.980;2023-07-29T19:10:11;20.40;82.40
43647;DHT22;56152;49.996;18.980;2023-07-29T19:15:15;20.30;83.00
43647;DHT22;56152;49.996;18.980;2023-07-29T19:20:24;20.20;83.40
43647;DHT22;56152;49.996;18.980;2023-07-29T19:25:35;20.10;84.00
43647;DHT22;56152;49.996;18.980;2023-07-29T19:30:42;20.00;84.20
43647;DHT22;56152;49.996;18.980;2023-07-29T19:35:44;19.90;84.60
43647;DHT22;56152;49.996;18.980;2023-07-29T19:40:49;20.00;85.00
43647;DHT22;56152;49.996;18.980;2023-07-29T19:45:52;20.00;85.20
43647;DHT22;56152;49.996;18.980;2023-07-29T19:50:58;19.90;85.30
43647;DHT22;56152;49.996;18.980;2023-07-29T19:56:01;19.90;85.60
43647;DHT22;56152;49.996;18.980;2023-07-29T20:01:08;19.90;85.80
43647;DHT22;56152;49.996;18.980;2023-07-29T20:06:13;19.80;86.20
43647;DHT22;56152;49.996;18.980;2023-07-29T20:11:18;19.80;86.50
43647;DHT22;56152;49.996;18.980;2023-07-29T20:16:22;19.80;86.80
43647;DHT22;56152;49.996;18.980;2023-07-29T20:21:29;19.80;87.20
43647;DHT22;56152;49.996;18.980;2023-07-29T20:26:52;19.80;87.40
43647;DHT22;56152;49.996;18.980;2023-07-29T20:32:31;19.70;87.70
43647;DHT22;56152;49.996;18.980;2023-07-29T20:37:49;19.60;87.50
43647;DHT22;56152;49.996;18.980;2023-07-29T20:42:51;19.60;88.20
43647;DHT22;56152;49.996;18.980;2023-07-29T20:47:58;19.60;88.70
43647;DHT22;56152;49.996;18.980;2023-07-29T20:53:00;19.50;89.00
43647;DHT22;56152;49.996;18.980;2023-07-29T20:58:04;19.40;89.30
43647;DHT22;56152;49.996;18.980;2023-07-29T21:03:09;19.50;89.70
43647;DHT22;56152;49.996;18.980;2023-07-29T21:08:11;19.40;90.00
43647;DHT22;56152;49.996;18.980;2023-07-29T21:13:17;19.30;90.10
43647;DHT22;56152;49.996;18.980;2023-07-29T21:18:23;19.30;90.20
43647;DHT22;56152;49.996;18.980;2023-07-29T21:23:25;19.20;90.30
43647;DHT22;56152;49.996;18.980;2023-07-29T21:28:28;19.20;90.40
43647;DHT22;56152;49.996;18.980;2023-07-29T21:33:31;19.10;90.60
43647;DHT22;56152;49.996;18.980;2023-07-29T21:38:35;19.10;90.70
43647;DHT22;56152;49.996;18.980;2023-07-29T21:43:41;19.00;90.80
43647;DHT22;56152;49.996;18.980;2023-07-29T21:48:46;18.90;91.00
43647;DHT22;56152;49.996;18.980;2023-07-29T21:53:48;18.90;91.10
43647;DHT22;56152;49.996;18.980;2023-07-29T21:58:52;18.90;91.20
43647;DHT22;56152;49.996;18.980;2023-07-29T22:03:57;18.80;91.30
43647;DHT22;56152;49.996;18.980;2023-07-29T22:09:00;18.90;91.40
43647;DHT22;56152;49.996;18.980;2023-07-29T22:14:03;18.80;91.50
43647;DHT22;56152;49.996;18.980;2023-07-29T22:19:09;18.70;91.60
43647;DHT22;56152;49.996;18.980;2023-07-29T22:24:12;18.70;91.80
43647;DHT22;56152;49.996;18.980;2023-07-29T22:29:15;18.70;91.90
43647;DHT22;56152;49.996;18.980;2023-07-29T22:34:18;18.60;92.00
43647;DHT22;56152;49.996;18.980;2023-07-29T22:39:21;18.60;92.20
43647;DHT22;56152;49.996;18.980;2023-07-29T22:44:26;18.60;92.30
43647;DHT22;56152;49.996;18.980;2023-07-29T22:49:30;18.50;92.30
43647;DHT22;56152;49.996;18.980;2023-07-29T22:54:32;18.50;92.50
43647;DHT22;56152;49.996;18.980;2023-07-29T22:59:35;18.50;92.50
43647;DHT22;56152;49.996;18.980;2023-07-29T23:04:40;18.50;92.60
43647;DHT22;56152;49.996;18.980;2023-07-29T23:09:43;18.40;92.70
43647;DHT22;56152;49.996;18.980;2023-07-29T23:14:50;18.40;92.70
43647;DHT22;56152;49.996;18.980;2023-07-29T23:19:54;18.40;92.70
43647;DHT22;56152;49.996;18.980;2023-07-29T23:24:57;18.40;92.80
43647;DHT22;56152;49.996;18.980;2023-07-29T23:30:06;18.40;92.90
43647;DHT22;56152;49.996;18.980;2023-07-29T23:35:10;18.40;93.00
43647;DHT22;56152;49.996;18.980;2023-07-29T23:40:14;18.40;93.10
43647;DHT22;56152;49.996;18.980;2023-07-29T23:45:18;18.40;93.10
43647;DHT22;56152;49.996;18.980;2023-07-29T23:50:23;18.40;93.10
43647;DHT22;56152;49.996;18.980;2023-07-29T23:55:25;18.30;93.20
